Time;durP1;ratioP1;P1;durP2;ratioP2;P2;SDS_P1;SDS_P2;PMS_P1;PMS_P2;Temp;Humidity;BMP_temperature;BMP_pressure;BME280_temperature;BME280_humidity;BME280_pressure;Samples;Min_cycle;Max_cycle;Signal;HPM_P1;HPM_P2
2022/10/07 00:01:39;;;;;;;1999.90;999.90;;;10.70;99.90;;;;;;5053947;28;20029;-78
2022/10/07 00:04:05;;;;;;;1999.90;999.90;;;10.70;99.90;;;;;;5053465;28;20020;-78
2022/10/07 00:06:31;;;;;;;1999.90;999.90;;;10.70;99.90;;;;;;5052903;28;20439;-77
2022/10/07 00:08:58;;;;;;;1999.90;999.90;;;10.60;99.90;;;;;;5051237;28;20107;-78
2022/10/07 00:11:26;;;;;;;1999.90;999.90;;;10.60;99.90;;;;;;5052857;28;20025;-78
2022/10/07 00:13:55;;;;;;;1999.90;999.90;;;10.60;99.90;;;;;;5040837;28;20025;-78
2022/10/07 00:16:33;;;;;;;1999.90;999.90;;;10.60;99.90;;;;;;5033158;28;20036;-73
2022/10/07 00:19:01;;;;;;;1999.90;999.90;;;10.60;99.90;;;;;;5049539;28;20116;-73
2022/10/07 00:21:29;;;;;;;1999.90;999.90;;;10.60;99.90;;;;;;5053459;28;20079;-78
2022/10/07 00:23:56;;;;;;;1999.90;999.90;;;10.60;99.90;;;;;;5053351;28;20044;-78
2022/10/07 00:26:24;;;;;;;1999.90;999.90;;;10.60;99.90;;;;;;5053160;28;20029;-78
2022/10/07 00:28:51;;;;;;;1999.90;999.90;;;10.50;99.90;;;;;;5053017;28;20063;-73
2022/10/07 00:31:22;;;;;;;1999.90;999.90;;;10.50;99.90;;;;;;5052000;28;20412;-73
2022/10/07 00:33:48;;;;;;;1999.90;999.90;;;10.40;99.90;;;;;;5053163;28;20424;-78
2022/10/07 00:36:18;;;;;;;1999.90;999.90;;;10.40;99.90;;;;;;5052900;28;20098;-73
2022/10/07 00:38:48;;;;;;;1999.90;999.90;;;10.40;99.90;;;;;;5052736;28;20053;-78
2022/10/07 00:41:19;;;;;;;1999.90;999.90;;;10.30;99.90;;;;;;5053115;28;20550;-78
2022/10/07 00:43:45;;;;;;;1999.90;999.90;;;10.30;99.90;;;;;;5052233;28;20056;-78
2022/10/07 00:46:28;;;;;;;1999.90;999.90;;;10.30;99.90;;;;;;5052911;28;20064;-78
2022/10/07 00:49:00;;;;;;;1999.90;999.90;;;10.30;99.90;;;;;;5052630;28;20134;-78
2022/10/07 00:51:27;;;;;;;1999.90;999.90;;;10.20;99.90;;;;;;5053000;28;20040;-73
2022/10/07 00:53:54;;;;;;;1999.90;999.90;;;10.20;99.90;;;;;;5052983;28;20074;-78
2022/10/07 00:56:22;;;;;;;1999.90;999.90;;;10.20;99.90;;;;;;5051837;28;20029;-78
2022/10/07 00:58:50;;;;;;;1999.90;999.90;;;10.10;99.90;;;;;;5052646;28;20017;-78
2022/10/07 01:01:17;;;;;;;1999.90;999.90;;;10.10;99.90;;;;;;5052304;28;20025;-78
2022/10/07 01:03:46;;;;;;;1999.90;999.90;;;10.10;99.90;;;;;;5052032;28;20471;-78
2022/10/07 01:06:11;;;;;;;1999.90;999.90;;;10.00;99.90;;;;;;5052461;28;20032;-78
2022/10/07 01:08:37;;;;;;;1999.90;999.90;;;10.10;99.90;;;;;;5052395;28;20063;-73
2022/10/07 01:11:32;;;;;;;1999.90;999.90;;;10.00;99.90;;;;;;5052108;28;20044;-73
2022/10/07 01:14:10;;;;;;;1999.90;999.90;;;10.00;99.90;;;;;;5039119;28;20025;-78
2022/10/07 01:16:41;;;;;;;1999.90;999.90;;;10.00;99.90;;;;;;5032486;28;20530;-78
2022/10/07 01:19:20;;;;;;;1999.90;999.90;;;10.00;99.90;;;;;;5048767;28;20066;-78
2022/10/07 01:22:00;;;;;;;1999.90;999.90;;;10.00;99.90;;;;;;5052312;28;20542;-73
2022/10/07 01:24:58;;;;;;;1999.90;999.90;;;10.00;99.90;;;;;;5051351;28;20074;-78
2022/10/07 01:27:26;;;;;;;1999.90;999.90;;;10.10;99.90;;;;;;5050516;28;20079;-78
2022/10/07 01:29:57;;;;;;;1999.90;999.90;;;10.00;99.90;;;;;;5052152;28;20048;-78
2022/10/07 01:32:31;;;;;;;1999.90;999.90;;;10.00;99.90;;;;;;5052031;28;20040;-78
2022/10/07 01:34:59;;;;;;;1999.90;999.90;;;10.00;99.90;;;;;;5051802;28;20451;-73
2022/10/07 01:37:30;;;;;;;1999.90;999.90;;;10.00;99.90;;;;;;5052509;28;20017;-78
2022/10/07 01:40:00;;;;;;;1999.90;999.90;;;10.00;99.90;;;;;;5052701;28;20021;-78
2022/10/07 01:42:27;;;;;;;1999.90;999.90;;;10.00;99.90;;;;;;5052224;28;20039;-78
2022/10/07 01:44:55;;;;;;;1999.90;999.90;;;10.00;99.90;;;;;;5051446;28;20024;-78
2022/10/07 01:47:21;;;;;;;1999.90;999.90;;;9.90;99.90;;;;;;5052220;28;20025;-73
2022/10/07 01:49:47;;;;;;;1999.90;999.90;;;9.90;99.90;;;;;;5051959;28;20083;-78
2022/10/07 01:52:34;;;;;;;1999.90;999.90;;;9.90;99.90;;;;;;5052295;28;20025;-78
2022/10/07 01:55:30;;;;;;;1999.90;999.90;;;9.90;99.90;;;;;;5052092;28;20078;-73
2022/10/07 01:58:05;;;;;;;1999.90;999.90;;;9.90;99.90;;;;;;5051565;28;20028;-73
2022/10/07 02:00:35;;;;;;;1999.90;999.90;;;9.90;99.90;;;;;;5051802;28;20100;-78
2022/10/07 02:03:27;;;;;;;1999.90;999.90;;;9.80;99.90;;;;;;5051449;28;20485;-73
2022/10/07 02:06:39;;;;;;;1999.90;999.90;;;9.80;99.90;;;;;;5050105;28;20016;-73
2022/10/07 02:09:18;;;;;;;1999.90;999.90;;;9.70;99.90;;;;;;5029676;28;20770;-78
2022/10/07 02:11:49;;;;;;;1999.90;999.90;;;9.70;99.90;;;;;;5049375;28;20041;-78
2022/10/07 02:14:30;;;;;;;1999.90;999.90;;;9.70;99.90;;;;;;5038747;28;20033;-78
2022/10/07 02:17:04;;;;;;;1999.90;999.90;;;9.70;99.90;;;;;;5036125;28;20033;-78
2022/10/07 02:19:42;;;;;;;1999.90;999.90;;;9.70;99.90;;;;;;5035327;28;20026;-78
2022/10/07 02:22:10;;;;;;;1999.90;999.90;;;9.70;99.90;;;;;;5035675;28;20100;-78
2022/10/07 02:24:38;;;;;;;1999.90;999.90;;;9.70;99.90;;;;;;5035329;28;20026;-73
2022/10/07 02:27:08;;;;;;;1999.90;999.90;;;9.70;99.90;;;;;;5054345;28;20036;-78
2022/10/07 02:29:37;;;;;;;1999.90;999.90;;;9.60;99.90;;;;;;5055432;28;20056;-78
2022/10/07 02:32:06;;;;;;;1999.90;999.90;;;9.60;99.90;;;;;;5055126;28;20104;-78
2022/10/07 02:34:35;;;;;;;1999.90;999.90;;;9.60;99.90;;;;;;5054402;28;20108;-78
2022/10/07 02:37:06;;;;;;;1999.90;999.90;;;9.50;99.90;;;;;;5055263;28;20092;-78
2022/10/07 02:39:33;;;;;;;1999.90;999.90;;;9.60;99.90;;;;;;5055462;28;20021;-78
2022/10/07 02:41:58;;;;;;;1999.90;999.90;;;9.60;99.90;;;;;;5055358;28;20031;-73
2022/10/07 02:44:46;;;;;;;1999.90;999.90;;;9.50;99.90;;;;;;5055165;28;20622;-78
2022/10/07 02:47:27;;;;;;;1999.90;999.90;;;9.50;99.90;;;;;;5048331;28;20107;-78
2022/10/07 02:49:59;;;;;;;1999.90;999.90;;;9.50;99.90;;;;;;5054999;28;20028;-78
2022/10/07 02:52:29;;;;;;;1999.90;999.90;;;9.50;99.90;;;;;;5055123;28;20036;-78
2022/10/07 02:54:58;;;;;;;1999.90;999.90;;;9.50;99.90;;;;;;5054660;28;20027;-73
2022/10/07 02:57:26;;;;;;;1999.90;999.90;;;9.50;99.90;;;;;;5054369;28;20029;-78
2022/10/07 02:59:53;;;;;;;1999.90;999.90;;;9.50;99.90;;;;;;5055203;28;20063;-78
2022/10/07 03:02:49;;;;;;;1999.90;999.90;;;9.50;99.90;;;;;;5054560;28;20029;-78
2022/10/07 03:05:19;;;;;;;1999.90;999.90;;;9.50;99.90;;;;;;5054340;28;20095;-73
2022/10/07 03:07:51;;;;;;;1999.90;999.90;;;9.50;99.90;;;;;;5053848;28;20436;-78
2022/10/07 03:10:16;;;;;;;1999.90;999.90;;;9.50;99.90;;;;;;5054574;28;20021;-78
2022/10/07 03:12:42;;;;;;;1999.90;999.90;;;9.40;99.90;;;;;;5051526;28;20087;-77
2022/10/07 03:15:12;;;;;;;1999.90;999.90;;;9.40;99.90;;;;;;5034578;28;20025;-78
2022/10/07 03:17:39;;;;;;;1999.90;999.90;;;9.40;99.90;;;;;;5040077;28;20096;-73
2022/10/07 03:20:06;;;;;;;1999.90;999.90;;;9.50;99.90;;;;;;5054410;28;20143;-78
2022/10/07 03:22:32;;;;;;;1999.90;999.90;;;9.40;99.90;;;;;;5053967;28;20450;-73
2022/10/07 03:24:58;;;;;;;1999.90;999.90;;;9.40;99.90;;;;;;5054077;28;20112;-77
2022/10/07 03:27:24;;;;;;;1999.90;999.90;;;9.40;99.90;;;;;;5053955;28;20064;-78
2022/10/07 03:29:49;;;;;;;1999.90;999.90;;;9.40;99.90;;;;;;5054247;28;20072;-78
2022/10/07 03:32:15;;;;;;;1999.90;999.90;;;9.40;99.90;;;;;;5053492;28;20106;-73
2022/10/07 03:34:41;;;;;;;1999.90;999.90;;;9.40;99.90;;;;;;5053810;28;20029;-78
2022/10/07 03:37:07;;;;;;;1999.90;999.90;;;9.40;99.90;;;;;;5054007;28;20155;-78
2022/10/07 03:39:32;;;;;;;1999.90;999.90;;;9.40;99.90;;;;;;5054640;28;20032;-78
2022/10/07 03:41:58;;;;;;;1999.90;999.90;;;9.40;99.90;;;;;;5053080;28;20033;-78
2022/10/07 03:44:24;;;;;;;1999.90;999.90;;;9.40;99.90;;;;;;5054058;28;20096;-78
2022/10/07 03:46:50;;;;;;;1999.90;999.90;;;9.40;99.90;;;;;;5053767;28;20099;-73
2022/10/07 03:49:16;;;;;;;1999.90;999.90;;;9.40;99.90;;;;;;5052341;28;20021;-74
2022/10/07 03:51:42;;;;;;;1999.90;999.90;;;9.50;99.90;;;;;;5051969;28;20484;-78
2022/10/07 03:54:08;;;;;;;1999.90;999.90;;;9.50;99.90;;;;;;5053998;28;20071;-78
2022/10/07 03:56:34;;;;;;;1999.90;999.90;;;9.50;99.90;;;;;;5053598;28;20021;-78
2022/10/07 03:59:00;;;;;;;1999.90;999.90;;;9.50;99.90;;;;;;5052950;28;20399;-74
2022/10/07 04:01:30;;;;;;;1999.90;999.90;;;9.50;99.90;;;;;;5053820;28;20069;-78
2022/10/07 04:03:57;;;;;;;1999.90;999.90;;;9.50;99.90;;;;;;5053546;28;20013;-78
2022/10/07 04:06:23;;;;;;;1999.90;999.90;;;9.40;99.90;;;;;;5053520;28;20057;-77
2022/10/07 04:08:52;;;;;;;1999.90;999.90;;;9.40;99.90;;;;;;5053512;28;20060;-73
2022/10/07 04:11:18;;;;;;;1999.90;999.90;;;9.40;99.90;;;;;;5053023;28;20032;-73
2022/10/07 04:13:44;;;;;;;1999.90;999.90;;;9.50;99.90;;;;;;5053343;28;20017;-74
2022/10/07 04:16:11;;;;;;;1999.90;999.90;;;9.50;99.90;;;;;;5051378;28;20029;-78
2022/10/07 04:18:38;;;;;;;1999.90;999.90;;;9.50;99.90;;;;;;5052901;28;20028;-73
2022/10/07 04:21:04;;;;;;;1999.90;999.90;;;9.50;99.90;;;;;;5053166;28;20399;-78
2022/10/07 04:23:29;;;;;;;1999.90;999.90;;;9.60;99.90;;;;;;5053285;28;20017;-78
2022/10/07 04:25:55;;;;;;;1999.90;999.90;;;9.50;99.90;;;;;;5053512;28;20480;-78
2022/10/07 04:28:25;;;;;;;1999.90;999.90;;;9.60;99.90;;;;;;5052862;28;20029;-78
2022/10/07 04:30:52;;;;;;;1999.90;999.90;;;9.60;99.90;;;;;;5052310;28;20432;-78
2022/10/07 04:33:20;;;;;;;1999.90;999.90;;;9.70;99.90;;;;;;5053096;28;20482;-78
2022/10/07 04:35:47;;;;;;;1999.90;999.90;;;9.70;99.90;;;;;;5052239;28;20025;-78
2022/10/07 04:38:17;;;;;;;1999.90;999.90;;;9.60;99.90;;;;;;5051637;28;20025;-73
2022/10/07 04:40:48;;;;;;;1999.90;999.90;;;9.50;99.90;;;;;;5052970;28;20121;-78
2022/10/07 04:43:18;;;;;;;1999.90;999.90;;;9.50;99.90;;;;;;5052848;28;20024;-78
2022/10/07 04:45:44;;;;;;;1999.90;999.90;;;9.50;99.90;;;;;;5052989;28;20029;-78
2022/10/07 04:48:09;;;;;;;1999.90;999.90;;;9.50;99.90;;;;;;5052730;28;20017;-78
2022/10/07 04:50:38;;;;;;;1999.90;999.90;;;9.50;99.90;;;;;;5047304;28;20029;-73
2022/10/07 04:53:06;;;;;;;1999.90;999.90;;;9.50;99.90;;;;;;5031599;28;20392;-78
2022/10/07 04:55:40;;;;;;;1999.90;999.90;;;9.40;99.90;;;;;;5032874;28;20463;-78
2022/10/07 04:58:06;;;;;;;1999.90;999.90;;;9.40;99.90;;;;;;5032760;28;20022;-78
2022/10/07 05:00:33;;;;;;;1999.90;999.90;;;9.40;99.90;;;;;;5031891;28;20467;-78
2022/10/07 05:02:58;;;;;;;1999.90;999.90;;;9.40;99.90;;;;;;5032544;28;20056;-73
2022/10/07 05:05:27;;;;;;;1999.90;999.90;;;9.40;99.90;;;;;;5031053;28;20029;-73
2022/10/07 05:07:53;;;;;;;1999.90;999.90;;;9.40;99.90;;;;;;5032199;28;20036;-78
2022/10/07 05:10:20;;;;;;;1999.90;999.90;;;9.50;99.90;;;;;;5039391;28;20500;-78
2022/10/07 05:12:45;;;;;;;1999.90;999.90;;;9.50;99.90;;;;;;5052074;28;20025;-78
2022/10/07 05:15:12;;;;;;;1999.90;999.90;;;9.50;99.90;;;;;;5052358;28;20031;-73
2022/10/07 05:17:39;;;;;;;1999.90;999.90;;;9.50;99.90;;;;;;5052673;28;20029;-77
2022/10/07 05:20:06;;;;;;;1999.90;999.90;;;9.60;99.90;;;;;;5052242;28;20134;-78
2022/10/07 05:22:36;;;;;;;1999.90;999.90;;;9.60;99.90;;;;;;5051555;28;20033;-78
2022/10/07 05:25:01;;;;;;;1999.90;999.90;;;9.70;99.90;;;;;;5051943;28;20029;-78
2022/10/07 05:27:27;;;;;;;1999.90;999.90;;;9.70;99.90;;;;;;5052049;28;20078;-78
2022/10/07 05:29:52;;;;;;;1999.90;999.90;;;9.70;99.90;;;;;;5037080;28;20053;-78
2022/10/07 05:32:18;;;;;;;1999.90;999.90;;;9.70;99.90;;;;;;5036009;28;20021;-78
2022/10/07 05:34:44;;;;;;;1999.90;999.90;;;9.70;99.90;;;;;;5051702;28;20110;-78
2022/10/07 05:37:10;;;;;;;1999.90;999.90;;;9.70;99.90;;;;;;5034173;28;20405;-78
2022/10/07 05:39:36;;;;;;;1999.90;999.90;;;9.70;99.90;;;;;;5042327;28;20021;-78
2022/10/07 05:42:02;;;;;;;1999.90;999.90;;;9.70;99.90;;;;;;5051580;28;20025;-73
2022/10/07 05:44:31;;;;;;;1999.90;999.90;;;9.70;99.90;;;;;;5052008;28;20024;-73
2022/10/07 05:46:56;;;;;;;1999.90;999.90;;;9.80;99.90;;;;;;5054105;28;20442;-73
2022/10/07 05:49:22;;;;;;;1999.90;999.90;;;9.70;99.90;;;;;;5055900;28;20021;-78
2022/10/07 05:51:48;;;;;;;1999.90;999.90;;;9.70;99.90;;;;;;5056301;28;20029;-78
2022/10/07 05:54:14;;;;;;;1999.90;999.90;;;9.60;99.90;;;;;;5054777;28;20022;-73
2022/10/07 05:56:39;;;;;;;1999.90;999.90;;;9.60;99.90;;;;;;5055823;28;20029;-73
2022/10/07 05:59:05;;;;;;;1999.90;999.90;;;9.50;99.90;;;;;;5053967;28;20029;-78
2022/10/07 06:01:31;;;;;;;1999.90;999.90;;;9.50;99.90;;;;;;5054571;28;20674;-78
2022/10/07 06:03:57;;;;;;;1999.90;999.90;;;9.60;99.90;;;;;;5053812;28;20033;-78
2022/10/07 06:06:24;;;;;;;1999.90;999.90;;;9.60;99.90;;;;;;5055447;28;20037;-78
2022/10/07 06:08:50;;;;;;;1999.90;999.90;;;9.60;99.90;;;;;;5052403;28;20435;-73
2022/10/07 06:14:02;;;;;;;1999.90;999.90;;;9.50;99.90;;;;;;5054946;28;20035;-78
2022/10/07 06:16:28;;;;;;;1999.90;999.90;;;9.50;99.90;;;;;;5054005;28;20469;-78
2022/10/07 06:18:54;;;;;;;1999.90;999.90;;;9.50;99.90;;;;;;5048440;28;20088;-77
2022/10/07 06:21:28;;;;;;;1999.90;999.90;;;9.50;99.90;;;;;;5038014;28;20033;-73
2022/10/07 06:23:56;;;;;;;1999.90;999.90;;;9.50;99.90;;;;;;5049311;28;20025;-78
2022/10/07 06:26:22;;;;;;;1999.90;999.90;;;9.50;99.90;;;;;;5049014;28;20401;-78
2022/10/07 06:28:48;;;;;;;1999.90;999.90;;;9.50;99.90;;;;;;5039923;28;20044;-78
2022/10/07 06:31:21;;;;;;;1999.90;999.90;;;9.50;99.90;;;;;;5042648;28;20040;-73
2022/10/07 06:33:47;;;;;;;1999.90;999.90;;;9.60;99.90;;;;;;5054251;28;20020;-73
2022/10/07 06:36:13;;;;;;;1999.90;999.90;;;9.60;99.90;;;;;;5053008;28;20488;-74
2022/10/07 06:38:46;;;;;;;1999.90;999.90;;;9.60;99.90;;;;;;5053039;28;20086;-78
2022/10/07 06:41:13;;;;;;;1999.90;999.90;;;9.70;99.90;;;;;;5054616;28;20068;-78
2022/10/07 06:43:38;;;;;;;1999.90;999.90;;;9.70;99.90;;;;;;5054100;28;20021;-74
2022/10/07 06:46:05;;;;;;;1999.90;999.90;;;9.70;99.90;;;;;;5053117;28;20037;-74
2022/10/07 06:48:33;;;;;;;1999.90;999.90;;;9.80;99.90;;;;;;5052386;28;20029;-73
2022/10/07 06:51:02;;;;;;;1999.90;999.90;;;9.80;99.90;;;;;;5052696;28;20044;-78
2022/10/07 06:53:28;;;;;;;1999.90;999.90;;;9.80;99.90;;;;;;5053811;28;20021;-78
2022/10/07 06:55:56;;;;;;;1999.90;999.90;;;9.90;99.90;;;;;;5054066;28;20056;-78
2022/10/07 06:58:24;;;;;;;1999.90;999.90;;;9.90;99.90;;;;;;5038253;28;20017;-74
2022/10/07 07:00:50;;;;;;;1999.90;999.90;;;9.90;99.90;;;;;;5040057;28;20124;-73
2022/10/07 07:03:16;;;;;;;1999.90;999.90;;;10.00;99.90;;;;;;5039227;28;20029;-77
2022/10/07 07:05:42;;;;;;;1999.90;999.90;;;10.10;99.90;;;;;;5043274;28;20037;-77
2022/10/07 07:08:08;;;;;;;1999.90;999.90;;;10.20;99.90;;;;;;5051561;28;20396;-77
2022/10/07 07:10:38;;;;;;;1999.90;999.90;;;10.20;99.90;;;;;;5052876;28;20047;-77
2022/10/07 07:13:06;;;;;;;1999.90;999.90;;;10.20;99.90;;;;;;5052144;28;20017;-77
2022/10/07 07:15:32;;;;;;;1999.90;999.90;;;10.30;99.90;;;;;;5051852;28;20175;-73
2022/10/07 07:17:58;;;;;;;1999.90;999.90;;;10.40;99.90;;;;;;5052750;28;20147;-72
2022/10/07 07:20:24;;;;;;;1999.90;999.90;;;10.40;99.90;;;;;;5052154;28;20442;-77
2022/10/07 07:22:51;;;;;;;1999.90;999.90;;;10.40;99.90;;;;;;5052292;28;20139;-77
2022/10/07 07:25:20;;;;;;;1999.90;999.90;;;10.40;99.90;;;;;;5052428;28;20033;-73
2022/10/07 07:27:46;;;;;;;1999.90;999.90;;;10.50;99.90;;;;;;5052506;28;20361;-73
2022/10/07 07:30:12;;;;;;;1999.90;999.90;;;10.70;99.90;;;;;;5052342;28;20056;-77
2022/10/07 07:32:38;;;;;;;1999.90;999.90;;;10.80;99.90;;;;;;5051125;28;20013;-72
2022/10/07 07:35:05;;;;;;;1999.90;999.90;;;10.80;99.90;;;;;;5052306;28;20120;-77
2022/10/07 07:37:32;;;;;;;1999.90;999.90;;;10.70;99.90;;;;;;5051116;28;20028;-77
2022/10/07 07:39:58;;;;;;;1999.90;999.90;;;10.70;99.90;;;;;;5052959;28;20033;-72
2022/10/07 07:42:26;;;;;;;1999.90;999.90;;;10.60;99.90;;;;;;5052327;28;20111;-72
2022/10/07 07:44:54;;;;;;;1999.90;999.90;;;10.60;99.90;;;;;;5051964;28;20563;-72
2022/10/07 07:47:20;;;;;;;1999.90;999.90;;;10.60;99.90;;;;;;5051390;28;20064;-77
2022/10/07 07:49:47;;;;;;;1999.90;999.90;;;10.70;99.90;;;;;;5052138;28;20039;-73
2022/10/07 07:52:13;;;;;;;1999.90;999.90;;;10.70;99.90;;;;;;5052248;28;20021;-72
2022/10/07 07:54:40;;;;;;;1999.90;999.90;;;10.80;99.90;;;;;;5050602;28;20043;-72
2022/10/07 07:57:06;;;;;;;1999.90;999.90;;;11.00;99.90;;;;;;5048442;28;20108;-76
2022/10/07 07:59:32;;;;;;;1999.90;999.90;;;11.10;99.90;;;;;;5044484;28;20083;-76
2022/10/07 08:01:59;;;;;;;1999.90;999.90;;;11.30;99.90;;;;;;5051925;28;20024;-73
2022/10/07 08:04:25;;;;;;;1999.90;999.90;;;11.50;99.90;;;;;;5051301;28;20385;-73
2022/10/07 08:06:51;;;;;;;1999.90;999.90;;;11.80;99.90;;;;;;5049473;28;20518;-74
2022/10/07 08:09:17;;;;;;;1999.90;999.90;;;12.60;99.90;;;;;;5049510;28;20025;-77
2022/10/07 08:11:45;;;;;;;1999.90;999.90;;;13.60;99.90;;;;;;5050377;28;20025;-78
2022/10/07 08:14:15;;;;;;;1999.90;999.90;;;14.50;99.90;;;;;;5043121;28;20041;-78
2022/10/07 08:16:44;;;;;;;1999.90;999.90;;;14.90;99.90;;;;;;5050451;28;20025;-74
2022/10/07 08:19:11;;;;;;;1999.90;999.90;;;14.80;99.90;;;;;;5051011;28;20028;-73
2022/10/07 08:21:37;;;;;;;1999.90;999.90;;;15.10;99.90;;;;;;5050740;28;20111;-73
2022/10/07 08:24:05;;;;;;;1999.90;999.90;;;15.40;99.90;;;;;;5051696;28;20087;-79
2022/10/07 08:26:32;;;;;;;1999.90;999.90;;;15.40;99.90;;;;;;5050377;28;20391;-78
2022/10/07 08:28:59;;;;;;;1999.90;999.90;;;15.20;99.90;;;;;;5051087;28;20063;-78
2022/10/07 08:31:29;;;;;;;1999.90;999.90;;;14.70;99.90;;;;;;5045050;28;20049;-73
2022/10/07 08:33:57;;;;;;;1999.90;999.90;;;14.30;99.90;;;;;;5045639;28;20107;-74
2022/10/07 08:36:24;;;;;;;1999.90;999.90;;;14.00;99.90;;;;;;5051191;28;20108;-77
2022/10/07 08:38:50;;;;;;;1999.90;999.90;;;13.90;99.90;;;;;;5047559;28;20543;-78
2022/10/07 08:41:38;;;;;;;1999.90;999.90;;;13.80;99.90;;;;;;5050534;28;20135;-76
2022/10/07 08:44:12;;;;;;;1999.90;999.90;;;13.60;99.90;;;;;;5051210;28;20033;-73
2022/10/07 08:46:45;;;;;;;1999.90;999.90;;;13.60;99.90;;;;;;5050509;28;20451;-73
2022/10/07 08:49:16;;;;;;;1999.90;999.90;;;13.90;99.90;;;;;;5048886;28;20083;-78
2022/10/07 08:52:12;;;;;;;1999.90;999.90;;;14.40;99.90;;;;;;5050098;28;20488;-80
2022/10/07 08:54:37;;;;;;;1999.90;999.90;;;14.80;99.90;;;;;;5042052;28;20087;-79
2022/10/07 08:57:14;;;;;;;1999.90;999.90;;;14.80;99.90;;;;;;5046982;28;20033;-75
2022/10/07 08:59:47;;;;;;;1999.90;999.90;;;15.10;99.90;;;;;;5047108;28;20017;-76
2022/10/07 09:02:23;;;;;;;;;;;15.60;99.90;;;;;;5049463;28;20388;-80
2022/10/07 09:05:23;;;;;;;1999.90;999.90;;;15.60;99.90;;;;;;5048386;28;19909;-80
2022/10/07 09:08:03;;;;;;;1999.90;999.90;;;15.70;99.90;;;;;;5045874;28;20032;-73
2022/10/07 09:10:48;;;;;;;1999.90;999.90;;;16.70;99.90;;;;;;5047861;28;20086;-73
2022/10/07 09:13:27;;;;;;;1999.90;999.90;;;17.40;99.90;;;;;;5048711;28;20033;-72
2022/10/07 09:16:10;;;;;;;1999.90;999.90;;;17.20;99.90;;;;;;5048430;28;20389;-78
2022/10/07 09:18:44;;;;;;;1999.90;999.90;;;17.40;99.90;;;;;;5047697;28;20033;-78
2022/10/07 09:21:40;;;;;;;1999.90;999.90;;;17.40;99.90;;;;;;5046596;28;20025;-73
2022/10/07 09:24:29;;;;;;;1999.90;999.90;;;17.40;99.90;;;;;;5046840;28;20045;-74
2022/10/07 09:27:01;;;;;;;1999.90;999.90;;;17.20;99.90;;;;;;5042265;28;20041;-77
2022/10/07 09:29:29;;;;;;;1999.90;999.90;;;17.10;99.90;;;;;;5048386;28;20353;-79
2022/10/07 09:31:57;;;;;;;1999.90;999.90;;;17.00;99.90;;;;;;5048086;28;20049;-77
2022/10/07 09:34:26;;;;;;;1999.90;999.90;;;17.00;99.90;;;;;;5048054;28;20033;-76
2022/10/07 09:37:12;;;;;;;1999.90;999.90;;;17.10;99.90;;;;;;5046214;28;20028;-74
2022/10/07 09:39:39;;;;;;;1999.90;999.90;;;17.00;99.90;;;;;;5048486;28;20025;-77
2022/10/07 09:42:08;;;;;;;1999.90;999.90;;;17.10;99.90;;;;;;5048676;28;20070;-78
2022/10/07 09:44:35;;;;;;;1999.90;999.90;;;17.10;99.90;;;;;;5047748;28;20047;-79
2022/10/07 09:47:21;;;;;;;1999.90;999.90;;;17.10;99.90;;;;;;5044300;28;20025;-78
2022/10/07 09:49:58;;;;;;;1999.90;999.90;;;17.20;99.90;;;;;;5047288;28;20017;-78
2022/10/07 09:52:30;;;;;;;1999.90;999.90;;;17.30;99.90;;;;;;5050322;28;20043;-78
2022/10/07 09:55:17;;;;;;;1999.90;999.90;;;17.30;99.90;;;;;;5049068;28;20407;-78
2022/10/07 09:57:51;;;;;;;1999.90;999.90;;;17.30;99.90;;;;;;5038825;28;20037;-78
2022/10/07 10:00:22;;;;;;;1999.90;999.90;;;17.40;99.90;;;;;;5050323;28;20041;-77
2022/10/07 10:03:02;;;;;;;1999.90;999.90;;;17.50;99.90;;;;;;5049604;28;20467;-76
2022/10/07 10:05:31;;;;;;;1999.90;999.90;;;17.60;99.90;;;;;;5043172;28;20111;-78
2022/10/07 10:08:17;;;;;;;1999.90;999.90;;;17.70;99.90;;;;;;5049405;28;20045;-78
2022/10/07 10:10:54;;;;;;;1999.90;999.90;;;17.60;99.90;;;;;;5047659;28;20032;-78
2022/10/07 10:13:24;;;;;;;1999.90;999.90;;;17.90;99.90;;;;;;5047273;28;20541;-77
2022/10/07 10:15:50;;;;;;;1999.90;999.90;;;18.00;99.90;;;;;;5048305;28;20074;-73
2022/10/07 10:18:37;;;;;;;1999.90;999.90;;;18.00;99.90;;;;;;5049587;28;20033;-77
2022/10/07 10:21:27;;;;;;;1999.90;999.90;;;18.20;99.90;;;;;;5047006;28;20033;-78
2022/10/07 10:23:56;;;;;;;1999.90;999.90;;;18.50;99.90;;;;;;5047904;28;20059;-78
2022/10/07 10:26:49;;;;;;;1999.90;999.90;;;18.70;99.90;;;;;;5049887;28;20029;-78
2022/10/07 10:29:58;;;;;;;1999.90;999.90;;;18.70;99.90;;;;;;5047674;28;20108;-75
2022/10/07 10:33:14;;;;;;;1999.90;999.90;;;18.70;99.90;;;;;;5045453;28;20381;-77
2022/10/07 10:35:54;;;;;;;1999.90;999.90;;;18.80;99.90;;;;;;5062571;28;20495;-77
2022/10/07 10:39:00;;;;;;;1999.90;999.90;;;19.00;99.90;;;;;;5052718;28;20067;-74
2022/10/07 10:41:45;;;;;;;1999.90;999.90;;;19.00;99.90;;;;;;5053066;28;20116;-74
2022/10/07 10:44:32;;;;;;;1999.90;999.90;;;19.00;99.90;;;;;;5053854;28;20029;-78
2022/10/07 10:47:26;;;;;;;1999.90;999.90;;;19.00;99.90;;;;;;5036501;28;20084;-78
2022/10/07 10:50:06;;;;;;;1999.90;999.90;;;19.10;99.90;;;;;;5053325;28;20078;-79
2022/10/07 10:52:43;;;;;;;1999.90;999.90;;;19.20;99.90;;;;;;5053588;28;20021;-78
2022/10/07 10:55:20;;;;;;;1999.90;999.90;;;19.20;99.90;;;;;;5051278;28;20460;-79
2022/10/07 10:57:55;;;;;;;1999.90;999.90;;;19.40;99.90;;;;;;5049767;28;20028;-79
2022/10/07 11:00:22;;;;;;;1999.90;999.90;;;19.40;99.90;;;;;;5053093;28;20029;-78
2022/10/07 11:03:04;;;;;;;1999.90;999.90;;;19.40;99.90;;;;;;5052436;28;20037;-79
2022/10/07 11:05:38;;;;;;;1999.90;999.90;;;19.60;99.90;;;;;;5053248;28;20113;-79
2022/10/07 11:08:14;;;;;;;1999.90;999.90;;;19.60;99.90;;;;;;5051473;28;20024;-74
2022/10/07 11:11:05;;;;;;;1999.90;999.90;;;19.70;99.90;;;;;;5045351;28;20043;-79
2022/10/07 11:13:50;;;;;;;1999.90;999.90;;;19.80;99.90;;;;;;5049067;28;20567;-79
2022/10/07 11:16:30;;;;;;;1999.90;999.90;;;20.00;99.90;;;;;;5048786;28;20020;-79
2022/10/07 11:19:05;;;;;;;1999.90;999.90;;;19.90;99.90;;;;;;5053467;28;20033;-74
2022/10/07 11:22:01;;;;;;;1999.90;999.90;;;20.00;99.90;;;;;;5054211;28;20025;-74
2022/10/07 11:24:39;;;;;;;1999.90;999.90;;;20.20;99.90;;;;;;5048646;28;20037;-79
2022/10/07 11:27:17;;;;;;;1999.90;999.90;;;20.10;99.90;;;;;;5053965;28;20051;-79
2022/10/07 11:30:07;;;;;;;1999.90;999.90;;;20.40;99.90;;;;;;5053603;28;20053;-79
2022/10/07 11:32:54;;;;;;;1999.90;999.90;;;20.60;99.90;;;;;;5033511;28;20037;-75
2022/10/07 11:35:46;;;;;;;1999.90;999.90;;;20.80;99.90;;;;;;5035942;28;20025;-74
2022/10/07 11:38:17;;;;;;;1999.90;999.90;;;20.80;99.90;;;;;;5051034;28;20028;-79
2022/10/07 11:40:52;;;;;;;1999.90;999.90;;;21.00;99.90;;;;;;5052078;28;20083;-79
2022/10/07 11:43:45;;;;;;;1999.90;999.90;;;21.10;99.90;;;;;;5053811;28;20032;-79
2022/10/07 11:46:50;;;;;;;1999.90;999.90;;;21.10;99.90;;;;;;5046735;28;20080;-75
2022/10/07 11:49:22;;;;;;;1999.90;999.90;;;21.30;99.90;;;;;;4996910;28;20049;-79
2022/10/07 11:52:23;;;;;;;1999.90;999.90;;;21.40;99.90;;;;;;5008630;28;20042;-79
2022/10/07 11:55:01;;;;;;;1999.90;999.90;;;21.50;99.90;;;;;;5010102;28;20030;-75
2022/10/07 11:57:32;;;;;;;1999.90;999.90;;;21.40;99.90;;;;;;5010387;28;20082;-78
2022/10/07 12:00:07;;;;;;;1999.90;999.90;;;21.10;99.90;;;;;;4990875;28;20022;-75
2022/10/07 12:02:40;;;;;;;1999.90;999.90;;;21.10;99.90;;;;;;5006620;28;20275;-76
2022/10/07 12:05:35;;;;;;;1999.90;999.90;;;21.30;99.90;;;;;;5008096;28;20038;-79
2022/10/07 12:08:02;;;;;;;1999.90;999.90;;;21.10;99.90;;;;;;5009170;28;20052;-79
2022/10/07 12:10:34;;;;;;;1999.90;999.90;;;21.20;99.90;;;;;;5013991;28;20026;-79
2022/10/07 12:13:01;;;;;;;1999.90;999.90;;;21.50;99.90;;;;;;5020138;28;20092;-73
2022/10/07 12:15:37;;;;;;;1999.90;999.90;;;21.90;99.90;;;;;;5009586;28;20696;-78
2022/10/07 12:18:03;;;;;;;1999.90;999.90;;;22.10;99.90;;;;;;5009600;28;20548;-77
2022/10/07 12:20:54;;;;;;;1999.90;999.90;;;22.30;99.90;;;;;;5038627;28;20045;-76
2022/10/07 12:23:24;;;;;;;1999.90;999.90;;;22.20;99.90;;;;;;5050193;28;20025;-80
2022/10/07 12:25:58;;;;;;;1999.90;999.90;;;22.00;99.90;;;;;;5050954;28;20052;-74
2022/10/07 12:28:40;;;;;;;1999.90;999.90;;;22.00;99.90;;;;;;5051743;28;20021;-80
2022/10/07 12:31:31;;;;;;;1999.90;999.90;;;22.30;99.90;;;;;;5050841;28;20045;-79